Severn Bridge, Canada
Current Conditions -  °F | °C
As of 4:00 PM on Monday 24 Nov 2014 (Local Time) from CYQA Reporting Station
Overcast Overcast  
Wind Chill: 52°   Ceiling: 2700
Heat Index: 52°   Visibility: 9mi
Dew Point: 50°   Wind: 12mph
Humidity: 94%   Direction: 170°S
Pressure: 29.11"   Gusts: NA
Location:  44.77°N, 79.33°W
Report Text: CYQA 242100Z AUTO 17010KT 9SM OVC027 11/10 A2911 RMK SLP862 DENSITY ALT 1600FT
Loading
Personal Weather Stations






























Interactive Weather Map New forecast layout! Learn more

10-Day Weather Forecast

Advertisements
Track Severe Weather on mobile